Fonda, Iowa
Current Conditions -  °F | °C
As of 2:15 PM on Thursday 29 Jan 2015 (Local Time) from KSLB Reporting Station
Overcast Overcast  
Wind Chill: 20°   Ceiling: 1900
Heat Index: 32°   Visibility: 10mi
Dew Point: 25°   Wind: 18mph
Humidity: 75%   Direction: 340°NNW
Pressure: 30.37"   Gusts: NA
Location:  42.58°N, 94.85°W
Report Text: KSLB 292015Z AUTO 34016KT 10SM OVC019 M00/M04 A3037 RMK AO2
Loading
Personal Weather Stations






























Interactive Weather Map New forecast layout! Learn more

10-Day Weather Forecast

Advertisements
Track Severe Weather on mobile